createdAt,value
2018-10-05T00:02:20.026Z,101462.88
2018-10-05T00:04:53.618Z,101460.85
2018-10-05T00:07:29.280Z,101464.09
2018-10-05T00:10:02.998Z,101458.55
2018-10-05T00:12:36.642Z,101464.69
2018-10-05T00:15:10.332Z,101465.20
2018-10-05T00:17:44.011Z,101458.48
2018-10-05T00:20:17.723Z,101459.42
2018-10-05T00:22:51.308Z,101454.35
2018-10-05T00:25:24.945Z,101458.81
2018-10-05T00:27:58.606Z,101455.55
2018-10-05T00:30:32.235Z,101456.45
2018-10-05T00:33:05.846Z,101457.09
2018-10-05T00:35:39.505Z,101459.43
2018-10-05T00:38:13.132Z,101457.37
2018-10-05T00:40:46.821Z,101456.95
2018-10-05T00:43:20.439Z,101453.27
2018-10-05T00:45:54.084Z,101454.28
2018-10-05T00:48:27.641Z,101459.08
2018-10-05T00:51:01.264Z,101458.83
2018-10-05T00:53:34.957Z,101459.73
2018-10-05T00:56:08.505Z,101460.19
2018-10-05T00:58:42.087Z,101454.72
2018-10-05T01:01:15.845Z,101456.07
2018-10-05T01:03:49.467Z,101452.28
2018-10-05T01:06:23.110Z,101449.41
2018-10-05T01:08:56.749Z,101451.63
2018-10-05T01:11:30.463Z,101445.29
2018-10-05T01:14:04.147Z,101445.80
2018-10-05T01:16:37.741Z,101441.66
2018-10-05T01:19:11.312Z,101431.47
2018-10-05T01:21:44.938Z,101428.12
2018-10-05T01:24:18.592Z,101434.22
2018-10-05T01:26:52.287Z,101438.22
2018-10-05T01:29:25.906Z,101435.72
2018-10-05T01:31:59.528Z,101433.72
2018-10-05T01:34:33.150Z,101435.89
2018-10-05T01:37:06.774Z,101441.59
2018-10-05T01:39:40.356Z,101436.92
2018-10-05T01:42:13.946Z,101428.75
2018-10-05T01:44:47.627Z,101421.86
2018-10-05T01:47:21.249Z,101418.53
2018-10-05T01:49:55.209Z,101419.05
2018-10-05T01:52:28.839Z,101417.42
2018-10-05T01:55:02.460Z,101411.12
2018-10-05T01:57:36.086Z,101414.53
2018-10-05T02:00:10.035Z,101413.70
2018-10-05T02:02:43.777Z,101406.14
2018-10-05T02:05:17.367Z,101407.05
2018-10-05T02:07:51.182Z,101402.85
2018-10-05T02:10:24.937Z,101405.42
2018-10-05T02:12:58.596Z,101402.03
2018-10-05T02:15:32.211Z,101405.98
2018-10-05T02:18:05.916Z,101406.00
2018-10-05T02:20:39.518Z,101405.59
2018-10-05T02:23:13.143Z,101409.89
2018-10-05T02:25:46.781Z,101408.28
2018-10-05T02:28:20.434Z,101416.92
2018-10-05T02:30:54.048Z,101412.34
2018-10-05T02:33:27.625Z,101416.60
2018-10-05T02:36:01.346Z,101419.21
2018-10-05T02:38:35.068Z,101415.80
2018-10-05T02:41:08.727Z,101406.03
2018-10-05T02:43:42.379Z,101402.58
2018-10-05T02:46:16.015Z,101400.52
2018-10-05T02:48:49.668Z,101402.64
2018-10-05T02:51:23.273Z,101401.85
2018-10-05T02:53:56.828Z,101401.00
2018-10-05T02:56:30.417Z,101398.39
2018-10-05T02:59:04.041Z,101395.44
2018-10-05T03:01:48.846Z,101398.84
2018-10-05T03:04:22.491Z,101394.54
2018-10-05T03:06:56.098Z,101395.44
2018-10-05T03:09:29.707Z,101395.87
2018-10-05T03:12:03.344Z,101395.94
2018-10-05T03:14:36.976Z,101388.72
2018-10-05T03:17:10.598Z,101382.30
2018-10-05T03:19:44.515Z,101381.88
2018-10-05T03:22:18.082Z,101383.25
2018-10-05T03:24:51.711Z,101379.41
2018-10-05T03:27:25.444Z,101370.04
2018-10-05T03:29:59.101Z,101369.64
2018-10-05T03:32:32.683Z,101369.64
2018-10-05T03:35:06.315Z,101357.27
2018-10-05T03:37:39.924Z,101356.86
2018-10-05T03:40:13.555Z,101351.77
2018-10-05T03:42:47.237Z,101352.67
2018-10-05T03:45:20.869Z,101354.41
2018-10-05T03:47:54.487Z,101354.20
2018-10-05T03:50:28.111Z,101357.62
2018-10-05T03:53:01.701Z,101356.84
2018-10-05T03:55:35.302Z,101359.40
2018-10-05T03:58:08.902Z,101365.03
2018-10-05T04:00:42.518Z,101372.34
2018-10-05T04:03:16.213Z,101356.20
2018-10-05T04:05:49.793Z,101360.90
2018-10-05T04:08:23.440Z,101359.17
2018-10-05T04:10:57.030Z,101359.75
2018-10-05T04:13:30.568Z,101360.60
2018-10-05T04:16:04.205Z,101356.80
2018-10-05T04:18:37.803Z,101357.25
2018-10-05T04:21:11.397Z,101354.73
2018-10-05T04:23:45.042Z,101355.22
2018-10-05T04:26:18.656Z,101349.30
2018-10-05T04:28:52.264Z,101351.08
2018-10-05T04:31:25.866Z,101346.38
2018-10-05T04:33:59.482Z,101354.03
2018-10-05T04:36:33.115Z,101354.03
2018-10-05T04:39:07.915Z,101352.40
2018-10-05T04:41:41.495Z,101353.33
2018-10-05T04:44:15.096Z,101349.92
2018-10-05T04:46:48.686Z,101357.17
2018-10-05T04:49:22.309Z,101357.12
2018-10-05T04:51:55.927Z,101365.00
2018-10-05T04:54:29.542Z,101362.83
2018-10-05T04:57:03.137Z,101354.39
2018-10-05T04:59:36.761Z,101359.55
2018-10-05T05:02:10.522Z,101362.13
2018-10-05T05:04:44.147Z,101359.20
2018-10-05T05:07:17.749Z,101362.20
2018-10-05T05:09:51.408Z,101363.53
2018-10-05T05:12:25.028Z,101356.77
2018-10-05T05:14:58.655Z,101359.37
2018-10-05T05:17:32.229Z,101356.34
2018-10-05T05:20:05.917Z,101352.48
2018-10-05T05:22:39.546Z,101357.22
2018-10-05T05:25:13.485Z,101351.29
2018-10-05T05:27:47.325Z,101349.17
2018-10-05T05:30:20.956Z,101349.61
2018-10-05T05:32:54.587Z,101347.05
2018-10-05T05:35:28.188Z,101338.52
2018-10-05T05:38:01.790Z,101342.80
2018-10-05T05:40:35.493Z,101339.80
2018-10-05T05:43:09.117Z,101341.13
2018-10-05T05:45:42.724Z,101346.25
2018-10-05T05:48:16.497Z,101346.69
2018-10-05T05:50:50.207Z,101348.85
2018-10-05T05:53:23.897Z,101350.53
2018-10-05T05:55:57.514Z,101353.98
2018-10-05T05:58:31.103Z,101360.81
2018-10-05T06:01:07.517Z,101361.66
2018-10-05T06:03:41.073Z,101361.58
2018-10-05T06:06:14.760Z,101359.06
2018-10-05T06:08:48.374Z,101361.63
2018-10-05T06:11:22.074Z,101365.86
2018-10-05T06:13:55.674Z,101354.77
2018-10-05T06:16:29.517Z,101364.19
2018-10-05T06:19:03.065Z,101366.27
2018-10-05T06:21:36.764Z,101362.34
2018-10-05T06:24:10.351Z,101363.94
2018-10-05T06:26:44.049Z,101362.20
2018-10-05T06:29:17.655Z,101363.41
2018-10-05T06:31:51.353Z,101359.43
2018-10-05T06:34:24.972Z,101355.09
2018-10-05T06:36:58.605Z,101358.36
2018-10-05T06:39:32.177Z,101361.63
2018-10-05T06:42:06.091Z,101361.05
2018-10-05T06:44:39.607Z,101359.17
2018-10-05T06:47:13.281Z,101356.05
2018-10-05T06:49:46.883Z,101353.62
2018-10-05T06:52:20.527Z,101353.80
2018-10-05T06:54:54.134Z,101353.87
2018-10-05T06:57:27.761Z,101352.63
2018-10-05T07:00:01.394Z,101353.08
2018-10-05T07:02:41.596Z,101355.53
2018-10-05T07:05:15.213Z,101358.45
2018-10-05T07:07:48.945Z,101354.63
2018-10-05T07:10:22.568Z,101357.05
2018-10-05T07:12:56.236Z,101358.50
2018-10-05T07:15:29.854Z,101355.91
2018-10-05T07:18:03.496Z,101352.13
2018-10-05T07:20:37.157Z,101349.56
2018-10-05T07:23:10.759Z,101343.02
2018-10-05T07:25:44.439Z,101343.16
2018-10-05T07:28:18.189Z,101339.86
2018-10-05T07:30:51.801Z,101340.91
2018-10-05T07:33:25.399Z,101337.54
2018-10-05T07:35:59.062Z,101335.09
2018-10-05T07:38:32.692Z,101336.16
2018-10-05T07:41:06.669Z,101339.22
2018-10-05T07:43:40.451Z,101336.36
2018-10-05T07:46:14.058Z,101341.99
2018-10-05T07:48:47.746Z,101341.20
2018-10-05T07:51:21.457Z,101331.34
2018-10-05T07:53:55.097Z,101328.34
2018-10-05T07:56:28.724Z,101326.24
2018-10-05T07:59:02.327Z,101323.17
2018-10-05T08:01:35.953Z,101322.91
2018-10-05T08:04:09.568Z,101328.34
2018-10-05T08:06:43.201Z,101326.48
2018-10-05T08:09:16.890Z,101326.05
2018-10-05T08:11:50.499Z,101331.44
2018-10-05T08:14:24.109Z,101325.52
2018-10-05T08:16:57.855Z,101327.38
2018-10-05T08:19:31.492Z,101325.97
2018-10-05T08:22:05.116Z,101318.19
2018-10-05T08:24:38.723Z,101314.58
2018-10-05T08:27:12.371Z,101311.31
2018-10-05T08:29:46.006Z,101315.41
2018-10-05T08:32:19.674Z,101317.80
2018-10-05T08:34:53.334Z,101318.10
2018-10-05T08:37:26.983Z,101309.85
2018-10-05T08:40:00.830Z,101316.41
2018-10-05T08:42:34.405Z,101311.83
2018-10-05T08:45:08.423Z,101307.78
2018-10-05T08:47:42.070Z,101307.12
2018-10-05T08:50:15.864Z,101306.06
2018-10-05T08:52:49.489Z,101304.18
2018-10-05T08:55:23.099Z,101302.70
2018-10-05T08:57:56.751Z,101306.47
2018-10-05T09:00:30.505Z,101297.08
2018-10-05T09:03:04.165Z,101287.30
2018-10-05T09:05:37.884Z,101292.35
2018-10-05T09:08:11.586Z,101288.38
2018-10-05T09:10:45.221Z,101287.72
2018-10-05T09:13:18.861Z,101283.11
2018-10-05T09:15:52.521Z,101284.31
2018-10-05T09:18:26.151Z,101282.62
2018-10-05T09:21:01.161Z,101284.91
2018-10-05T09:23:34.922Z,101284.64
2018-10-05T09:26:08.606Z,101277.63
2018-10-05T09:28:42.287Z,101274.11
2018-10-05T09:31:15.905Z,101269.40
2018-10-05T09:33:49.865Z,101264.91
2018-10-05T09:36:23.588Z,101264.42
2018-10-05T09:38:57.210Z,101257.06
2018-10-05T09:41:30.838Z,101267.14
2018-10-05T09:44:04.440Z,101253.84
2018-10-05T09:46:38.029Z,101247.11
2018-10-05T09:49:11.779Z,101248.18
2018-10-05T09:51:45.592Z,101239.08
2018-10-05T09:54:19.209Z,101240.84
2018-10-05T09:56:52.869Z,101233.09
2018-10-05T09:59:26.829Z,101231.80
2018-10-05T10:02:05.677Z,101234.20
2018-10-05T10:04:39.375Z,101231.30
2018-10-05T10:07:12.978Z,101228.92
2018-10-05T10:09:46.657Z,101220.94
2018-10-05T10:12:20.263Z,101216.46
2018-10-05T10:14:53.912Z,101209.13
2018-10-05T10:17:27.501Z,101214.88
2018-10-05T10:20:01.211Z,101212.73
2018-10-05T10:22:34.943Z,101215.20
2018-10-05T10:25:08.659Z,101206.03
2018-10-05T10:27:42.334Z,101207.23
2018-10-05T10:30:16.161Z,101211.44
2018-10-05T10:32:49.843Z,101207.64
2018-10-05T10:35:23.459Z,101204.38
2018-10-05T10:37:57.313Z,101203.09
2018-10-05T10:40:31.095Z,101198.80
2018-10-05T10:43:09.300Z,101188.84
2018-10-05T10:45:43.025Z,101188.84
2018-10-05T10:48:16.759Z,101189.41
2018-10-05T10:50:50.409Z,101182.91
2018-10-05T10:53:24.046Z,101175.46
2018-10-05T10:55:57.711Z,101179.90
2018-10-05T10:58:31.336Z,101173.14
2018-10-05T11:01:04.999Z,101171.02
2018-10-05T11:03:38.662Z,101162.99
2018-10-05T11:06:12.325Z,101158.84
2018-10-05T11:08:46.090Z,101149.33
2018-10-05T11:11:19.742Z,101144.77
2018-10-05T11:13:53.404Z,101146.94
2018-10-05T11:16:27.025Z,101136.14
2018-10-05T11:19:00.833Z,101131.87
2018-10-05T11:21:34.468Z,101121.36
2018-10-05T11:24:08.076Z,101120.70
2018-10-05T11:26:41.667Z,101128.14
2018-10-05T11:29:15.270Z,101128.70
2018-10-05T11:31:49.010Z,101119.83
2018-10-05T11:34:22.607Z,101119.38
2018-10-05T11:36:56.185Z,101112.95
2018-10-05T11:39:29.795Z,101109.41
2018-10-05T11:42:03.410Z,101106.92
2018-10-05T11:44:37.093Z,101102.51
2018-10-05T11:47:10.674Z,101100.84
2018-10-05T11:49:44.293Z,101099.70
2018-10-05T11:52:17.999Z,101091.92
2018-10-05T11:54:51.763Z,101088.64
2018-10-05T11:57:25.594Z,101084.38
2018-10-05T11:59:59.221Z,101082.50
2018-10-05T12:02:32.813Z,101079.10
2018-10-05T12:05:06.675Z,101067.77
2018-10-05T12:07:40.282Z,101063.92
2018-10-05T12:10:14.396Z,101063.52
2018-10-05T12:12:48.004Z,101060.55
2018-10-05T12:15:21.643Z,101052.59
2018-10-05T12:17:55.214Z,101048.91
2018-10-05T12:20:28.828Z,101044.53
2018-10-05T12:23:02.554Z,101037.98
2018-10-05T12:25:36.192Z,101038.45
2018-10-05T12:28:09.798Z,101031.02
2018-10-05T12:30:43.443Z,101031.73
2018-10-05T12:33:17.105Z,101025.14
2018-10-05T12:35:50.757Z,101030.03
2018-10-05T12:38:24.360Z,101023.41
2018-10-05T12:40:57.992Z,101024.51
2018-10-05T12:43:31.610Z,101015.39
2018-10-05T12:46:05.347Z,101015.42
2018-10-05T12:48:40.457Z,101010.64
2018-10-05T12:51:14.104Z,101008.14
2018-10-05T12:53:47.737Z,101005.48
2018-10-05T12:56:21.915Z,101002.55
2018-10-05T12:58:56.160Z,101005.26
2018-10-05T13:01:29.987Z,100992.47
2018-10-05T13:04:03.635Z,100995.98
2018-10-05T13:06:37.913Z,100990.55
2018-10-05T13:09:12.330Z,100991.78
2018-10-05T13:11:46.152Z,100995.34
2018-10-05T13:14:19.841Z,100990.70
2018-10-05T13:16:53.446Z,100980.28
2018-10-05T13:19:27.035Z,100973.25
2018-10-05T13:22:01.232Z,100972.12
2018-10-05T13:24:34.833Z,100973.02
2018-10-05T13:27:08.454Z,100964.39
2018-10-05T13:29:42.055Z,100963.48
2018-10-05T13:32:15.651Z,100960.48
2018-10-05T13:34:49.264Z,100960.30
2018-10-05T13:37:22.972Z,100954.64
2018-10-05T13:39:56.690Z,100957.27
2018-10-05T13:42:30.277Z,100946.38
2018-10-05T13:45:03.945Z,100944.27
2018-10-05T13:47:37.549Z,100941.67
2018-10-05T13:50:12.635Z,100939.53
2018-10-05T13:52:46.334Z,100933.56
2018-10-05T13:55:20.000Z,100937.59
2018-10-05T13:57:53.616Z,100933.78
2018-10-05T14:00:27.293Z,100932.39
2018-10-05T14:03:00.875Z,100932.94
2018-10-05T14:05:34.460Z,100928.86
2018-10-05T14:08:08.143Z,100931.75
2018-10-05T14:10:41.849Z,100924.61
2018-10-05T14:13:15.468Z,100920.36
2018-10-05T14:15:49.073Z,100925.44
2018-10-05T14:18:22.772Z,100917.45
2018-10-05T14:20:56.457Z,100913.08
2018-10-05T14:23:30.138Z,100914.38
2018-10-05T14:26:04.813Z,100907.78
2018-10-05T14:28:38.504Z,100904.36
2018-10-05T14:31:12.128Z,100900.65
2018-10-05T14:33:45.896Z,100893.98
2018-10-05T14:36:19.557Z,100888.42
2018-10-05T14:38:53.780Z,100892.68
2018-10-05T14:41:27.590Z,100883.77
2018-10-05T14:44:01.381Z,100884.34
2018-10-05T14:46:35.050Z,100874.85
2018-10-05T14:49:08.720Z,100865.03
2018-10-05T14:51:42.428Z,100862.33
2018-10-05T14:54:16.110Z,100863.38
2018-10-05T14:56:49.749Z,100859.38
2018-10-05T14:59:23.393Z,100853.23
2018-10-05T15:01:57.029Z,100850.75
2018-10-05T15:04:30.615Z,100849.99
2018-10-05T15:07:04.279Z,100843.66
2018-10-05T15:09:37.966Z,100843.83
2018-10-05T15:12:11.600Z,100841.70
2018-10-05T15:14:45.217Z,100840.69
2018-10-05T15:17:18.887Z,100833.08
2018-10-05T15:19:53.088Z,100826.41
2018-10-05T15:22:26.722Z,100821.58
2018-10-05T15:25:00.512Z,100817.61
2018-10-05T15:27:34.292Z,100823.23
2018-10-05T15:30:08.071Z,100813.71
2018-10-05T15:32:41.734Z,100818.44
2018-10-05T15:35:15.405Z,100808.59
2018-10-05T15:37:49.049Z,100809.23
2018-10-05T15:40:22.638Z,100812.30
2018-10-05T15:42:56.341Z,100808.41
2018-10-05T15:45:30.044Z,100805.81
2018-10-05T15:48:03.732Z,100805.52
2018-10-05T15:50:37.822Z,100801.97
2018-10-05T15:53:11.507Z,100796.34
2018-10-05T15:55:45.180Z,100802.24
2018-10-05T15:58:18.819Z,100796.94
2018-10-05T16:00:52.615Z,100798.14
2018-10-05T16:03:26.340Z,100793.13
2018-10-05T16:06:00.158Z,100791.25
2018-10-05T16:08:33.784Z,100793.27
2018-10-05T16:11:07.379Z,100788.66
2018-10-05T16:13:40.979Z,100785.47
2018-10-05T16:16:14.603Z,100783.39
2018-10-05T16:18:48.307Z,100784.14
2018-10-05T16:21:21.901Z,100786.17
2018-10-05T16:23:55.948Z,100783.45
2018-10-05T16:26:29.528Z,100777.31
2018-10-05T16:29:03.172Z,100783.69
2018-10-05T16:31:36.817Z,100779.95
2018-10-05T16:34:10.496Z,100777.69
2018-10-05T16:36:44.107Z,100778.64
2018-10-05T16:39:17.711Z,100779.44
2018-10-05T16:41:51.333Z,100776.34
2018-10-05T16:44:24.966Z,100785.74
2018-10-05T16:46:58.635Z,100771.05
2018-10-05T16:49:32.269Z,100770.73
2018-10-05T16:52:05.985Z,100770.69
2018-10-05T16:54:39.614Z,100771.16
2018-10-05T16:57:13.359Z,100769.88
2018-10-05T16:59:47.095Z,100774.27
2018-10-05T17:02:20.692Z,100768.20
2018-10-05T17:04:54.333Z,100768.20
2018-10-05T17:07:27.955Z,100761.36
2018-10-05T17:10:01.592Z,100764.35
2018-10-05T17:12:35.197Z,100762.28
2018-10-05T17:15:08.826Z,100764.50
2018-10-05T17:17:42.457Z,100759.17
2018-10-05T17:20:16.082Z,100760.91
2018-10-05T17:22:49.798Z,100765.77
2018-10-05T17:25:23.573Z,100759.13
2018-10-05T17:27:57.168Z,100762.09
2018-10-05T17:30:30.794Z,100765.13
2018-10-05T17:33:04.426Z,100756.05
2018-10-05T17:35:38.057Z,100759.11
2018-10-05T17:38:11.780Z,100754.90
2018-10-05T17:40:45.487Z,100753.27
2018-10-05T17:43:19.148Z,100754.97
2018-10-05T17:45:52.747Z,100753.11
2018-10-05T17:48:26.343Z,100749.52
2018-10-05T17:51:00.306Z,100751.56
2018-10-05T17:53:33.991Z,100749.29
2018-10-05T17:56:07.691Z,100740.61
2018-10-05T17:58:41.294Z,100735.41
2018-10-05T18:01:14.904Z,100732.14
2018-10-05T18:03:48.508Z,100733.33
2018-10-05T18:06:22.145Z,100729.04
2018-10-05T18:08:55.830Z,100719.15
2018-10-05T18:11:29.377Z,100719.94
2018-10-05T18:14:03.101Z,100720.77
2018-10-05T18:16:36.774Z,100717.80
2018-10-05T18:19:10.379Z,100709.17
2018-10-05T18:21:43.971Z,100705.59
2018-10-05T18:24:17.590Z,100700.84
2018-10-05T18:26:51.230Z,100703.84
2018-10-05T18:29:24.871Z,100703.28
2018-10-05T18:31:58.459Z,100701.62
2018-10-05T18:34:32.110Z,100707.53
2018-10-05T18:37:05.730Z,100703.52
2018-10-05T18:39:39.340Z,100707.69
2018-10-05T18:42:12.985Z,100711.02
2018-10-05T18:44:46.627Z,100708.93
2018-10-05T18:47:20.224Z,100701.89
2018-10-05T18:49:53.983Z,100700.89
2018-10-05T18:52:27.555Z,100701.00
2018-10-05T18:55:01.143Z,100701.00
2018-10-05T18:57:34.777Z,100696.95
2018-10-05T19:00:08.520Z,100695.05
2018-10-05T19:02:42.089Z,100686.70
2018-10-05T19:05:15.715Z,100685.70
2018-10-05T19:07:49.337Z,100682.17
2018-10-05T19:10:23.029Z,100679.70
2018-10-05T19:12:56.630Z,100681.20
2018-10-05T19:15:30.334Z,100679.19
2018-10-05T19:18:04.027Z,100681.93
2018-10-05T19:20:37.603Z,100680.37
2018-10-05T19:23:11.219Z,100675.72
2018-10-05T19:25:44.832Z,100674.16
2018-10-05T19:28:30.586Z,100672.20
2018-10-05T19:31:04.125Z,100667.23
2018-10-05T19:33:37.708Z,100666.56
2018-10-05T19:36:11.304Z,100660.34
2018-10-05T19:38:44.939Z,100666.04
2018-10-05T19:41:18.612Z,100666.59
2018-10-05T19:43:52.256Z,100660.65
2018-10-05T19:46:26.027Z,100655.23
2018-10-05T19:48:59.840Z,100651.47
2018-10-05T19:51:33.506Z,100654.20
2018-10-05T19:54:07.213Z,100656.94
2018-10-05T19:56:40.822Z,100660.16
2018-10-05T19:59:14.436Z,100659.41
2018-10-05T20:01:48.052Z,100652.84
2018-10-05T20:04:21.685Z,100656.05
2018-10-05T20:06:55.386Z,100656.14
2018-10-05T20:09:29.012Z,100654.56
2018-10-05T20:12:02.626Z,100656.00
2018-10-05T20:14:36.344Z,100645.92
2018-10-05T20:17:10.876Z,100648.35
2018-10-05T20:19:44.474Z,100644.20
2018-10-05T20:22:18.038Z,100643.13
2018-10-05T20:24:53.003Z,100646.33
2018-10-05T20:27:26.667Z,100644.36
2018-10-05T20:30:00.449Z,100644.00
2018-10-05T20:32:34.046Z,100646.12
2018-10-05T20:35:07.686Z,100642.03
2018-10-05T20:37:41.370Z,100639.17
2018-10-05T20:40:15.081Z,100641.73
2018-10-05T20:42:48.709Z,100642.62
2018-10-05T20:45:22.324Z,100629.00
2018-10-05T20:47:55.886Z,100628.22
2018-10-05T20:50:29.462Z,100630.03
2018-10-05T20:53:03.054Z,100625.83
2018-10-05T20:55:36.682Z,100624.63
2018-10-05T20:58:10.231Z,100616.28
2018-10-05T21:00:43.820Z,100612.49
2018-10-05T21:03:17.397Z,100607.54
2018-10-05T21:05:51.046Z,100605.95
2018-10-05T21:08:24.637Z,100610.33
2018-10-05T21:10:58.295Z,100600.16
2018-10-05T21:13:31.870Z,100607.99
2018-10-05T21:16:05.527Z,100604.17
2018-10-05T21:18:39.101Z,100603.84
2018-10-05T21:21:12.727Z,100599.25
2018-10-05T21:23:46.316Z,100600.64
2018-10-05T21:26:19.941Z,100588.41
2018-10-05T21:28:53.630Z,100592.03
2018-10-05T21:31:27.299Z,100592.27
2018-10-05T21:34:00.909Z,100594.97
2018-10-05T21:36:34.527Z,100592.09
2018-10-05T21:39:09.604Z,100590.97
2018-10-05T21:41:43.316Z,100589.77
2018-10-05T21:44:16.955Z,100586.06
2018-10-05T21:46:51.219Z,100577.64
2018-10-05T21:49:24.808Z,100574.30
2018-10-05T21:51:58.476Z,100575.97
2018-10-05T21:54:32.274Z,100570.86
2018-10-05T21:57:06.090Z,100572.53
2018-10-05T21:59:39.675Z,100573.47
2018-10-05T22:02:13.773Z,100565.05
2018-10-05T22:04:47.403Z,100562.13
2018-10-05T22:07:21.015Z,100569.47
2018-10-05T22:09:55.498Z,100561.42
2018-10-05T22:12:29.412Z,100557.22
2018-10-05T22:15:03.047Z,100562.85
2018-10-05T22:17:36.929Z,100560.73
2018-10-05T22:20:10.711Z,100560.03
2018-10-05T22:22:44.344Z,100557.12
2018-10-05T22:25:18.625Z,100556.33
2018-10-05T22:27:52.290Z,100550.50
2018-10-05T22:30:26.053Z,100548.91
2018-10-05T22:33:00.146Z,100541.45
2018-10-05T22:35:34.606Z,100540.73
2018-10-05T22:38:08.788Z,100538.19
2018-10-05T22:40:42.697Z,100533.06
2018-10-05T22:43:16.581Z,100530.53
2018-10-05T22:45:50.217Z,100520.72
2018-10-05T22:48:23.935Z,100527.66
2018-10-05T22:50:57.704Z,100523.94
2018-10-05T22:53:31.301Z,100522.68
2018-10-05T22:56:04.932Z,100519.02
2018-10-05T22:58:38.974Z,100519.92
2018-10-05T23:01:12.660Z,100518.32
2018-10-05T23:03:46.275Z,100519.30
2018-10-05T23:06:20.553Z,100513.47
2018-10-05T23:08:54.392Z,100507.16
2018-10-05T23:11:27.983Z,100511.06
2018-10-05T23:14:02.044Z,100508.51
2018-10-05T23:16:35.677Z,100500.12
2018-10-05T23:19:09.265Z,100502.68
2018-10-05T23:21:43.263Z,100498.08
2018-10-05T23:24:16.856Z,100491.31
2018-10-05T23:26:50.518Z,100490.55
2018-10-05T23:29:24.088Z,100489.70
2018-10-05T23:31:58.033Z,100490.17
2018-10-05T23:34:31.761Z,100485.17
2018-10-05T23:37:05.401Z,100489.50
2018-10-05T23:39:40.285Z,100482.75
2018-10-05T23:42:13.894Z,100482.86
2018-10-05T23:44:47.612Z,100481.33
2018-10-05T23:47:21.221Z,100488.20
2018-10-05T23:49:54.793Z,100482.77
2018-10-05T23:52:36.760Z,100479.84
2018-10-05T23:55:10.420Z,100483.22
2018-10-05T23:57:44.378Z,100485.71
